Tozeur, Tunisia
Current Conditions -  °F | °C
As of 10:00 PM on Monday 24 Nov 2014 (Local Time) from DTTZ Reporting Station
Scattered Clouds Scattered Clouds  
Wind Chill: 70°   Ceiling: Unl
Heat Index: 70°   Visibility: 4mi
Dew Point: 50°   Wind: 12mph
Humidity: 49%   Direction: 90°E
Pressure: 30.12"   Gusts: NA
Location:  33.92°N, 8.13°E
Report Text: DTTZ 242100Z 09010KT 7000 SCT030 21/10 Q1020 NOSIG
Loading
Personal Weather Stations






























Interactive Weather Map New forecast layout! Learn more

10-Day Weather Forecast

Advertisements
Track Severe Weather on mobile